createdAt,value
2022-08-17T00:00:55.647Z,32.71
2022-08-17T00:01:55.689Z,31.90
2022-08-17T00:02:55.636Z,33.03
2022-08-17T00:03:55.635Z,41.73
2022-08-17T00:04:56.449Z,34.64
2022-08-17T00:05:55.591Z,31.58
2022-08-17T00:06:55.688Z,32.87
2022-08-17T00:07:55.581Z,32.07
2022-08-17T00:08:55.602Z,31.74
2022-08-17T00:09:55.553Z,32.87
2022-08-17T00:10:55.570Z,33.68
2022-08-17T00:12:35.009Z,31.90
2022-08-17T00:12:56.737Z,36.09
2022-08-17T00:13:56.280Z,46.89
2022-08-17T00:14:55.540Z,42.54
2022-08-17T00:15:55.520Z,35.77
2022-08-17T00:16:57.326Z,35.13
2022-08-17T00:17:55.509Z,34.16
2022-08-17T00:19:07.023Z,34.97
2022-08-17T00:19:56.475Z,40.12
2022-08-17T00:20:55.474Z,45.60
2022-08-17T00:22:34.062Z,42.06
2022-08-17T00:22:56.429Z,35.29
2022-08-17T00:23:55.408Z,41.89
2022-08-17T00:24:55.413Z,36.42
2022-08-17T00:25:55.450Z,36.58
2022-08-17T00:26:55.383Z,32.39
2022-08-17T00:27:55.391Z,35.13
2022-08-17T00:28:55.380Z,33.84
2022-08-17T00:29:55.495Z,39.16
2022-08-17T00:30:55.376Z,39.80
2022-08-17T00:31:55.347Z,32.87
2022-08-17T00:33:12.248Z,34.48
2022-08-17T00:33:56.350Z,37.22
2022-08-17T00:34:55.315Z,36.90
2022-08-17T00:35:55.333Z,33.35
2022-08-17T00:36:55.316Z,32.87
2022-08-17T00:37:55.279Z,32.39
2022-08-17T00:38:55.245Z,41.57
2022-08-17T00:39:55.356Z,40.44
2022-08-17T00:40:55.893Z,36.25
2022-08-17T00:41:55.316Z,35.77
2022-08-17T00:42:55.246Z,34.00
2022-08-17T00:43:55.240Z,32.55
2022-08-17T00:44:55.217Z,31.74
2022-08-17T00:45:55.219Z,33.19
2022-08-17T00:46:55.192Z,38.83
2022-08-17T00:47:55.185Z,36.90
2022-08-17T00:48:55.222Z,33.52
2022-08-17T00:49:55.125Z,35.45
2022-08-17T00:50:55.193Z,45.28
2022-08-17T00:51:55.186Z,40.77
2022-08-17T00:52:55.121Z,38.03
2022-08-17T00:53:56.140Z,40.93
2022-08-17T00:54:55.109Z,41.09
2022-08-17T00:55:55.110Z,39.48
2022-08-17T00:56:55.097Z,35.29
2022-08-17T00:57:55.718Z,35.13
2022-08-17T00:58:56.088Z,38.99
2022-08-17T01:00:01.823Z,38.83
2022-08-17T01:00:56.094Z,48.50
2022-08-17T01:01:55.035Z,39.80
2022-08-17T01:02:55.283Z,41.89
2022-08-17T01:03:59.594Z,43.99
2022-08-17T01:04:56.018Z,36.74
2022-08-17T01:05:55.025Z,35.13
2022-08-17T01:06:55.001Z,43.18
2022-08-17T01:07:54.982Z,36.09
2022-08-17T01:08:57.707Z,35.13
2022-08-17T01:09:54.982Z,35.45
2022-08-17T01:10:58.954Z,37.06
2022-08-17T01:11:56.001Z,42.38
2022-08-17T01:12:54.954Z,41.89
2022-08-17T01:13:54.909Z,36.09
2022-08-17T01:14:54.898Z,41.73
2022-08-17T01:15:54.914Z,47.05
2022-08-17T01:16:54.921Z,45.28
2022-08-17T01:17:54.889Z,45.28
2022-08-17T01:18:54.882Z,45.60
2022-08-17T01:19:54.868Z,37.54
2022-08-17T01:20:54.933Z,41.57
2022-08-17T01:21:54.877Z,42.22
2022-08-17T01:22:54.873Z,37.06
2022-08-17T01:23:54.824Z,33.52
2022-08-17T01:24:54.829Z,39.16
2022-08-17T01:25:55.517Z,38.67
2022-08-17T01:26:56.733Z,36.42
2022-08-17T01:27:55.305Z,44.79
2022-08-17T01:28:55.884Z,40.12
2022-08-17T01:29:55.776Z,38.99
2022-08-17T01:30:58.542Z,44.63
2022-08-17T01:31:54.733Z,43.34
2022-08-17T01:32:54.821Z,38.67
2022-08-17T01:33:54.714Z,41.09
2022-08-17T01:34:54.748Z,51.56
2022-08-17T01:35:54.679Z,45.12
2022-08-17T01:36:54.693Z,37.87
2022-08-17T01:37:54.671Z,39.32
2022-08-17T01:38:54.665Z,42.86
2022-08-17T01:39:55.592Z,46.57
2022-08-17T01:40:57.567Z,40.28
2022-08-17T01:41:54.651Z,38.03
2022-08-17T01:42:54.605Z,42.38
2022-08-17T01:43:54.645Z,40.77
2022-08-17T01:44:54.632Z,36.58
2022-08-17T01:46:03.583Z,39.96
2022-08-17T01:46:54.639Z,35.61
2022-08-17T01:47:54.582Z,43.34
2022-08-17T01:48:54.531Z,42.22
2022-08-17T01:49:54.550Z,36.90
2022-08-17T01:50:54.538Z,39.64
2022-08-17T01:51:54.556Z,36.09
2022-08-17T01:52:54.567Z,36.25
2022-08-17T01:53:54.552Z,39.32
2022-08-17T01:54:54.538Z,37.06
2022-08-17T01:55:54.534Z,36.58
2022-08-17T01:56:54.537Z,36.58
2022-08-17T01:57:54.516Z,36.42
2022-08-17T01:58:54.490Z,34.00
2022-08-17T01:59:54.487Z,35.29
2022-08-17T02:01:00.823Z,41.89
2022-08-17T02:01:55.566Z,35.61
2022-08-17T02:02:54.458Z,40.77
2022-08-17T02:04:00.437Z,33.03
2022-08-17T02:04:55.436Z,32.71
2022-08-17T02:05:54.396Z,32.23
2022-08-17T02:06:54.713Z,33.03
2022-08-17T02:07:59.663Z,42.38
2022-08-17T02:08:56.956Z,48.02
2022-08-17T02:09:55.500Z,35.13
2022-08-17T02:10:54.367Z,34.16
2022-08-17T02:11:56.217Z,33.68
2022-08-17T02:12:54.522Z,40.44
2022-08-17T02:13:57.953Z,39.96
2022-08-17T02:14:54.316Z,47.70
2022-08-17T02:15:54.303Z,41.89
2022-08-17T02:16:54.399Z,42.54
2022-08-17T02:17:54.809Z,37.38
2022-08-17T02:18:54.326Z,40.93
2022-08-17T02:19:54.340Z,34.32
2022-08-17T02:20:54.236Z,36.42
2022-08-17T02:21:54.297Z,34.32
2022-08-17T02:22:54.234Z,41.41
2022-08-17T02:23:54.957Z,37.71
2022-08-17T02:24:58.778Z,38.99
2022-08-17T02:25:55.274Z,36.90
2022-08-17T02:26:54.208Z,38.99
2022-08-17T02:27:54.176Z,49.15
2022-08-17T02:28:54.201Z,47.86
2022-08-17T02:29:54.202Z,48.02
2022-08-17T02:31:00.790Z,38.83
2022-08-17T02:31:55.162Z,38.51
2022-08-17T02:45:45.621Z,49.31
2022-08-17T02:46:45.618Z,47.86
2022-08-17T02:47:45.672Z,45.92
2022-08-17T02:48:45.525Z,40.93
2022-08-17T02:49:54.195Z,40.28
2022-08-17T02:50:46.476Z,40.12
2022-08-17T02:51:45.451Z,49.15
2022-08-17T02:52:47.486Z,45.60
2022-08-17T02:53:47.600Z,50.92
2022-08-17T02:54:46.603Z,46.25
2022-08-17T02:55:46.564Z,45.76
2022-08-17T02:56:46.598Z,44.96
2022-08-17T02:57:46.574Z,48.98
2022-08-17T02:58:46.611Z,46.57
2022-08-17T02:59:49.023Z,42.38
2022-08-17T03:00:47.635Z,34.97
2022-08-17T03:01:46.575Z,41.73
2022-08-17T03:02:46.538Z,39.64
2022-08-17T03:03:46.495Z,41.57
2022-08-17T03:04:46.476Z,38.67
2022-08-17T03:05:46.529Z,46.89
2022-08-17T03:06:46.458Z,53.01
2022-08-17T03:07:46.505Z,48.02
2022-08-17T03:08:46.469Z,49.95
2022-08-17T03:09:46.423Z,44.15
2022-08-17T03:10:46.447Z,54.95
2022-08-17T03:11:46.430Z,45.12
2022-08-17T03:12:46.451Z,46.89
2022-08-17T03:13:46.405Z,45.76
2022-08-17T03:14:47.373Z,43.83
2022-08-17T03:15:46.347Z,48.82
2022-08-17T03:16:46.394Z,50.76
2022-08-17T03:17:46.358Z,49.95
2022-08-17T03:18:46.375Z,51.72
2022-08-17T03:19:46.345Z,49.15
2022-08-17T03:20:46.361Z,47.86
2022-08-17T03:21:46.312Z,46.41
2022-08-17T03:22:53.019Z,52.69
2022-08-17T03:23:47.280Z,45.44
2022-08-17T03:24:47.281Z,49.79
2022-08-17T03:25:46.292Z,47.21
2022-08-17T03:26:46.286Z,50.60
2022-08-17T03:27:48.245Z,55.91
2022-08-17T03:28:47.261Z,52.85
2022-08-17T03:29:46.189Z,51.72
2022-08-17T03:30:46.272Z,54.46
2022-08-17T03:31:46.245Z,52.05
2022-08-17T03:32:46.278Z,54.62
2022-08-17T03:33:46.180Z,52.37
2022-08-17T03:34:46.177Z,56.56
2022-08-17T03:35:46.165Z,53.66
2022-08-17T03:36:46.157Z,56.40
2022-08-17T03:37:46.228Z,56.07
2022-08-17T03:38:46.140Z,55.75
2022-08-17T03:39:46.222Z,56.88
2022-08-17T03:40:57.031Z,56.07
2022-08-17T03:41:47.091Z,56.07
2022-08-17T03:42:46.805Z,56.72
2022-08-17T03:43:46.114Z,57.52
2022-08-17T03:44:46.619Z,52.53
2022-08-17T03:45:46.108Z,51.56
2022-08-17T03:46:46.028Z,50.76
2022-08-17T03:47:46.078Z,53.66
2022-08-17T03:48:46.051Z,55.43
2022-08-17T03:49:46.746Z,48.02
2022-08-17T03:50:46.023Z,46.57
2022-08-17T03:51:46.051Z,56.72
2022-08-17T03:52:46.041Z,54.30
2022-08-17T03:53:47.022Z,52.05
2022-08-17T03:54:45.966Z,51.56
2022-08-17T03:55:46.015Z,53.33
2022-08-17T03:56:46.715Z,53.17
2022-08-17T03:57:45.988Z,53.50
2022-08-17T03:58:45.988Z,53.01
2022-08-17T03:59:45.965Z,53.66
2022-08-17T04:00:45.953Z,55.27
2022-08-17T04:01:46.012Z,52.85
2022-08-17T04:02:45.999Z,50.76
2022-08-17T04:03:45.908Z,56.07
2022-08-17T04:04:45.904Z,53.82
2022-08-17T04:05:45.905Z,59.78
2022-08-17T04:06:45.855Z,50.76
2022-08-17T04:07:45.889Z,56.40
2022-08-17T04:08:45.835Z,54.62
2022-08-17T04:09:45.841Z,51.56
2022-08-17T04:10:45.844Z,54.79
2022-08-17T04:11:45.815Z,53.98
2022-08-17T04:12:46.811Z,51.40
2022-08-17T04:13:45.799Z,57.20
2022-08-17T04:14:53.763Z,52.85
2022-08-17T04:15:46.797Z,51.08
2022-08-17T04:16:45.767Z,50.43
2022-08-17T04:17:45.788Z,55.27
2022-08-17T04:18:45.756Z,54.79
2022-08-17T04:36:07.985Z,56.24
2022-08-17T04:37:07.997Z,57.52
2022-08-17T04:38:07.967Z,55.75
2022-08-17T04:39:07.941Z,58.01
2022-08-17T04:40:08.032Z,55.11
2022-08-17T04:41:07.880Z,55.75
2022-08-17T04:42:08.967Z,54.30
2022-08-17T04:43:07.901Z,54.46
2022-08-17T04:44:07.837Z,57.85
2022-08-17T04:45:07.843Z,57.85
2022-08-17T04:46:07.865Z,53.33
2022-08-17T04:47:08.525Z,54.14
2022-08-17T04:48:07.823Z,52.69
2022-08-17T04:49:07.869Z,56.72
2022-08-17T04:50:07.854Z,58.49
2022-08-17T04:51:07.767Z,57.85
2022-08-17T04:52:07.828Z,56.56
2022-08-17T04:53:08.862Z,54.95
2022-08-17T04:54:07.752Z,55.27
2022-08-17T04:55:07.734Z,57.20
2022-08-17T04:56:07.752Z,56.56
2022-08-17T04:57:07.711Z,54.79
2022-08-17T04:58:07.819Z,58.97
2022-08-17T04:59:07.731Z,56.07
2022-08-17T05:00:07.786Z,56.88
2022-08-17T05:01:07.846Z,55.27
2022-08-17T05:02:08.725Z,55.43
2022-08-17T05:03:07.697Z,55.59
2022-08-17T05:04:32.964Z,54.95
2022-08-17T05:05:08.678Z,55.11
2022-08-17T05:06:07.612Z,55.91
2022-08-17T05:07:07.694Z,57.69
2022-08-17T05:08:07.586Z,55.43
2022-08-17T05:09:07.586Z,55.11
2022-08-17T05:10:07.657Z,54.14
2022-08-17T05:11:07.590Z,52.69
2022-08-17T05:12:07.655Z,49.47
2022-08-17T05:13:07.537Z,56.40
2022-08-17T05:14:07.534Z,54.62
2022-08-17T05:15:07.563Z,55.27
2022-08-17T05:16:07.531Z,50.43
2022-08-17T05:17:11.283Z,52.37
2022-08-17T05:18:07.496Z,55.59
2022-08-17T05:19:08.392Z,53.33
2022-08-17T05:20:07.483Z,51.08
2022-08-17T05:21:07.610Z,53.17
2022-08-17T05:22:07.481Z,53.82
2022-08-17T05:23:07.520Z,54.30
2022-08-17T05:24:13.514Z,52.69
2022-08-17T05:25:08.431Z,50.11
2022-08-17T05:26:08.727Z,56.24
2022-08-17T05:27:07.492Z,54.95
2022-08-17T05:28:07.579Z,54.14
2022-08-17T05:29:07.395Z,49.95
2022-08-17T05:30:07.374Z,53.50
2022-08-17T05:31:07.397Z,56.24
2022-08-17T05:32:39.439Z,53.33
2022-08-17T05:33:08.634Z,52.69
2022-08-17T05:34:07.335Z,58.33
2022-08-17T05:35:07.415Z,53.66
2022-08-17T05:36:07.348Z,51.72
2022-08-17T05:37:07.309Z,55.11
2022-08-17T05:38:07.352Z,54.62
2022-08-17T05:39:07.314Z,53.98
2022-08-17T05:40:07.412Z,49.15
2022-08-17T05:41:07.321Z,56.24
2022-08-17T05:42:07.326Z,52.85
2022-08-17T05:43:07.256Z,52.53
2022-08-17T05:44:07.251Z,53.66
2022-08-17T05:45:07.283Z,53.01
2022-08-17T05:46:07.238Z,54.30
2022-08-17T05:47:07.314Z,56.24
2022-08-17T05:48:07.304Z,53.82
2022-08-17T05:49:07.312Z,49.79
2022-08-17T05:50:09.867Z,45.76
2022-08-17T05:51:07.176Z,53.82
2022-08-17T05:52:07.152Z,50.92
2022-08-17T05:53:07.208Z,51.72
2022-08-17T05:54:07.225Z,49.15
2022-08-17T05:55:07.097Z,51.40
2022-08-17T05:56:09.101Z,49.31
2022-08-17T05:57:08.114Z,49.63
2022-08-17T05:58:07.186Z,47.37
2022-08-17T05:59:07.127Z,50.43
2022-08-17T06:00:07.127Z,53.50
2022-08-17T06:01:07.261Z,51.24
2022-08-17T06:02:07.111Z,53.82
2022-08-17T06:03:07.114Z,47.70
2022-08-17T06:04:07.102Z,48.34
2022-08-17T06:05:07.142Z,46.57
2022-08-17T10:51:04.342Z,46.73
2022-08-17T10:52:05.148Z,49.95
2022-08-17T10:53:04.492Z,51.56
2022-08-17T12:47:06.926Z,52.21
2022-08-17T12:48:05.931Z,49.63
2022-08-17T12:49:05.667Z,52.69
2022-08-17T12:50:05.875Z,53.50
2022-08-17T12:51:05.639Z,53.66
2022-08-17T12:52:05.841Z,48.18
2022-08-17T12:53:05.621Z,50.43
2022-08-17T12:54:05.648Z,49.95
2022-08-17T12:55:05.595Z,50.43
2022-08-17T12:56:06.248Z,50.27
2022-08-17T12:57:05.591Z,51.56
2022-08-17T12:58:05.565Z,51.56
2022-08-17T12:59:05.596Z,50.60
2022-08-17T13:00:05.651Z,47.53
2022-08-17T13:01:05.833Z,47.21
2022-08-17T13:02:06.052Z,49.15
2022-08-17T13:03:05.869Z,50.11
2022-08-17T13:04:05.830Z,50.76
2022-08-17T13:05:05.511Z,50.11
2022-08-17T13:06:05.903Z,50.11
2022-08-17T13:07:05.545Z,49.63
2022-08-17T13:08:05.493Z,50.43
2022-08-17T13:09:05.532Z,49.63
2022-08-17T13:10:05.552Z,49.15
2022-08-17T13:11:05.520Z,48.34
2022-08-17T13:12:05.674Z,49.63
2022-08-17T13:13:05.531Z,47.05
2022-08-17T13:14:05.629Z,42.38
2022-08-17T13:15:05.559Z,48.02
2022-08-17T13:16:05.817Z,45.60
2022-08-17T13:17:09.712Z,47.37
2022-08-17T13:18:07.562Z,43.99
2022-08-17T13:19:06.085Z,47.05
2022-08-17T13:20:05.420Z,46.57
2022-08-17T13:21:05.356Z,48.50
2022-08-17T13:22:05.333Z,44.31
2022-08-17T13:23:09.977Z,45.44
2022-08-17T13:24:07.367Z,46.41
2022-08-17T13:25:05.394Z,46.41
2022-08-17T13:26:05.554Z,49.47
2022-08-17T13:27:07.919Z,47.70
2022-08-17T13:28:05.706Z,45.76
2022-08-17T13:29:05.294Z,48.66
2022-08-17T13:45:58.658Z,48.02
2022-08-17T13:46:58.611Z,44.96
2022-08-17T13:53:37.940Z,49.15
2022-08-17T13:54:37.560Z,48.50
2022-08-17T13:55:37.535Z,48.34
2022-08-17T13:56:39.552Z,48.34
2022-08-17T14:10:40.887Z,52.69
2022-08-17T14:11:40.928Z,49.31
2022-08-17T14:12:40.924Z,48.18
2022-08-17T14:13:40.726Z,50.27
2022-08-17T14:19:01.812Z,47.70
2022-08-17T14:19:51.624Z,50.11
2022-08-17T14:20:51.681Z,51.08
2022-08-17T16:16:35.340Z,47.86
2022-08-17T16:17:39.857Z,48.50
2022-08-17T16:18:36.362Z,45.44
2022-08-17T16:19:36.047Z,46.57
2022-08-17T16:20:35.260Z,47.86
2022-08-17T16:21:42.815Z,47.37
2022-08-17T16:22:36.249Z,48.82
2022-08-17T16:23:35.252Z,45.44
2022-08-17T16:24:35.294Z,48.82
2022-08-17T16:41:11.085Z,48.98
2022-08-17T16:42:11.194Z,49.31
2022-08-17T16:43:11.015Z,50.43
2022-08-17T16:44:11.036Z,47.37
2022-08-17T16:45:10.967Z,50.11
2022-08-17T16:46:11.151Z,49.79
2022-08-17T16:47:10.936Z,48.66
2022-08-17T16:48:10.922Z,48.34
2022-08-17T16:49:10.973Z,48.34
2022-08-17T16:50:11.917Z,47.05
2022-08-17T16:51:10.879Z,49.79
2022-08-17T16:52:11.374Z,47.37
2022-08-17T16:53:11.038Z,47.70
2022-08-17T16:54:14.678Z,44.63
2022-08-17T16:55:13.245Z,50.76
2022-08-17T16:56:10.830Z,48.18
2022-08-17T16:57:10.839Z,49.31
2022-08-17T16:58:10.861Z,47.70
2022-08-17T16:59:30.350Z,46.89
2022-08-17T17:00:11.810Z,52.37
2022-08-17T17:01:10.885Z,46.89
2022-08-17T17:02:10.818Z,47.70
2022-08-17T17:03:18.961Z,48.98
2022-08-17T17:04:11.855Z,52.21
2022-08-17T17:05:11.669Z,42.54
2022-08-17T17:06:10.832Z,46.25
2022-08-17T17:07:10.793Z,48.02
2022-08-17T17:08:10.721Z,47.37
2022-08-17T17:09:10.748Z,50.11
2022-08-17T17:10:10.693Z,50.43
2022-08-17T17:11:10.713Z,42.22
2022-08-17T17:12:11.670Z,46.41
2022-08-17T17:13:10.674Z,47.70
2022-08-17T17:14:10.705Z,49.47
2022-08-17T17:15:10.654Z,47.86
2022-08-17T17:16:10.697Z,50.60
2022-08-17T17:17:10.625Z,49.63
2022-08-17T17:18:10.629Z,48.98
2022-08-17T17:19:10.661Z,48.98
2022-08-17T17:20:10.628Z,50.11
2022-08-17T17:21:10.581Z,50.76
2022-08-17T17:22:10.627Z,45.92
2022-08-17T17:23:11.566Z,47.37
2022-08-17T17:24:10.576Z,47.37
2022-08-17T17:25:10.544Z,46.25
2022-08-17T17:26:10.549Z,44.15
2022-08-17T17:27:10.552Z,45.12
2022-08-17T17:28:10.623Z,47.05
2022-08-17T17:29:10.575Z,48.18
2022-08-17T17:30:10.522Z,53.01
2022-08-17T17:31:10.509Z,46.41
2022-08-17T17:32:10.483Z,47.53
2022-08-17T17:33:10.534Z,49.63
2022-08-17T17:34:10.476Z,47.86
2022-08-17T17:35:11.161Z,48.18
2022-08-17T17:36:10.426Z,44.47
2022-08-17T17:37:10.435Z,43.34
2022-08-17T17:38:10.456Z,44.79
2022-08-17T17:39:10.443Z,47.53
2022-08-17T17:40:10.526Z,44.47
2022-08-17T17:41:10.428Z,47.86
2022-08-17T17:42:11.178Z,47.70
2022-08-17T17:43:36.903Z,45.12
2022-08-17T17:44:12.495Z,43.51
2022-08-17T17:45:11.369Z,43.34
2022-08-17T17:46:28.665Z,46.89
2022-08-17T17:47:11.358Z,47.05
2022-08-17T17:48:10.348Z,40.93
2022-08-17T17:49:11.153Z,48.50
2022-08-17T17:50:11.330Z,45.60
2022-08-17T17:51:10.336Z,46.08
2022-08-17T17:52:14.551Z,46.25
2022-08-17T17:53:12.296Z,48.18
2022-08-17T17:54:10.270Z,46.73
2022-08-17T17:55:10.259Z,49.63
2022-08-17T17:56:18.777Z,44.79
2022-08-17T17:57:11.231Z,47.05
2022-08-17T17:58:10.217Z,50.27
2022-08-17T17:59:12.933Z,47.21
2022-08-17T18:00:10.338Z,47.53
2022-08-17T18:01:10.213Z,46.57
2022-08-17T18:02:11.299Z,45.60
2022-08-17T18:03:10.217Z,47.05
2022-08-17T18:04:17.565Z,46.25
2022-08-17T18:05:11.779Z,46.73
2022-08-17T18:06:10.432Z,50.76
2022-08-17T18:07:11.131Z,45.44
2022-08-17T18:08:10.682Z,41.09
2022-08-17T18:09:10.243Z,43.83
2022-08-17T18:10:13.724Z,48.18
2022-08-17T18:11:11.094Z,44.96
2022-08-17T18:12:10.160Z,48.98
2022-08-17T18:13:10.080Z,48.34
2022-08-17T18:14:10.111Z,45.92
2022-08-17T18:15:10.197Z,43.83
2022-08-17T18:16:10.034Z,47.37
2022-08-17T18:17:10.673Z,48.18
2022-08-17T18:18:10.047Z,48.02
2022-08-17T18:19:10.132Z,45.92
2022-08-17T18:20:10.006Z,49.95
2022-08-17T18:21:10.055Z,48.50
2022-08-17T18:22:14.272Z,46.57
2022-08-17T18:23:09.996Z,41.41
2022-08-17T18:24:10.013Z,46.08
2022-08-17T18:25:09.998Z,48.02
2022-08-17T18:26:09.953Z,43.67
2022-08-17T18:27:09.965Z,47.37
2022-08-17T18:28:10.561Z,47.86
2022-08-17T18:29:09.962Z,48.98
2022-08-17T18:30:09.967Z,46.25
2022-08-17T18:31:09.904Z,50.11
2022-08-17T18:32:09.907Z,49.31
2022-08-17T18:33:09.873Z,46.73
2022-08-17T18:34:23.386Z,49.15
2022-08-17T18:35:11.931Z,48.98
2022-08-17T18:36:09.864Z,47.21
2022-08-17T18:37:09.880Z,46.25
2022-08-17T18:38:09.855Z,46.41
2022-08-17T18:39:09.861Z,47.70
2022-08-17T18:40:09.927Z,47.53
2022-08-17T18:41:09.807Z,48.98
2022-08-17T18:42:09.906Z,45.92
2022-08-17T18:43:09.786Z,45.44
2022-08-17T18:44:09.771Z,46.41
2022-08-17T18:45:09.801Z,47.86
2022-08-17T18:46:09.751Z,48.02
2022-08-17T18:47:10.699Z,40.12
2022-08-17T18:48:09.728Z,46.89
2022-08-17T18:49:09.750Z,47.21
2022-08-17T18:50:09.743Z,46.89
2022-08-17T18:51:09.708Z,42.22
2022-08-17T18:52:09.735Z,45.76
2022-08-17T18:53:09.737Z,48.34
2022-08-17T18:54:10.695Z,45.76
2022-08-17T18:55:09.738Z,45.60
2022-08-17T18:56:09.668Z,46.41
2022-08-17T18:57:09.635Z,42.86
2022-08-17T18:58:09.643Z,46.08
2022-08-17T18:59:09.619Z,49.47
2022-08-17T19:00:09.689Z,45.44
2022-08-17T19:01:09.662Z,48.98
2022-08-17T19:02:15.317Z,49.95
2022-08-17T19:03:12.392Z,49.47
2022-08-17T19:04:09.564Z,42.38
2022-08-17T19:05:09.593Z,47.70
2022-08-17T19:06:09.565Z,44.96
2022-08-17T19:07:09.541Z,43.34
2022-08-17T19:08:09.555Z,42.86
2022-08-17T19:09:09.526Z,49.63
2022-08-17T19:10:09.602Z,48.34
2022-08-17T19:11:09.517Z,41.41
2022-08-17T19:12:09.519Z,47.37
2022-08-17T19:13:12.794Z,52.53
2022-08-17T19:14:09.455Z,49.79
2022-08-17T19:15:09.517Z,49.31
2022-08-17T19:16:14.475Z,46.57
2022-08-17T19:17:10.494Z,52.69
2022-08-17T19:18:14.704Z,50.76
2022-08-17T19:19:11.419Z,53.01
2022-08-17T19:20:10.210Z,50.11
2022-08-17T19:21:09.451Z,54.95
2022-08-17T19:22:10.335Z,53.66
2022-08-17T19:23:09.408Z,49.63
2022-08-17T19:24:09.413Z,47.05
2022-08-17T19:25:09.491Z,47.70
2022-08-17T19:26:50.365Z,50.43
2022-08-17T19:27:10.445Z,47.21
2022-08-17T19:28:15.341Z,49.95
2022-08-17T19:29:10.376Z,51.08
2022-08-17T19:30:09.319Z,48.98
2022-08-17T19:31:09.331Z,49.63
2022-08-17T19:32:09.347Z,48.02
2022-08-17T19:33:09.360Z,48.66
2022-08-17T19:34:10.208Z,48.18
2022-08-17T19:35:13.589Z,52.05
2022-08-17T19:36:10.282Z,53.98
2022-08-17T19:37:09.259Z,48.18
2022-08-17T19:38:12.741Z,46.73
2022-08-17T19:39:09.203Z,51.88
2022-08-17T19:40:09.287Z,49.63
2022-08-17T19:41:09.321Z,48.02
2022-08-17T19:42:09.201Z,48.82
2022-08-17T19:43:09.198Z,43.34
2022-08-17T19:44:09.178Z,47.70
2022-08-17T19:45:09.246Z,51.56
2022-08-17T19:46:09.198Z,45.60
2022-08-17T19:47:10.495Z,48.34
2022-08-17T19:48:09.362Z,50.11
2022-08-17T19:49:09.123Z,47.70
2022-08-17T19:50:10.009Z,47.86
2022-08-17T19:51:09.111Z,53.17
2022-08-17T19:52:09.147Z,54.30
2022-08-17T19:53:09.058Z,47.21
2022-08-17T19:54:09.067Z,44.15
2022-08-17T19:55:09.127Z,42.38
2022-08-17T19:56:09.033Z,44.47
2022-08-17T19:57:09.065Z,42.86
2022-08-17T19:58:11.767Z,46.25
2022-08-17T19:59:10.061Z,49.79
2022-08-17T20:00:09.086Z,48.66
2022-08-17T20:01:09.042Z,50.92
2022-08-17T20:02:09.708Z,49.47
2022-08-17T20:03:09.015Z,46.41
2022-08-17T20:04:08.959Z,48.02
2022-08-17T20:05:08.976Z,48.34
2022-08-17T20:06:13.154Z,44.15
2022-08-17T20:07:10.954Z,47.53
2022-08-17T20:08:08.954Z,45.60
2022-08-17T20:09:14.791Z,45.28
2022-08-17T20:10:10.937Z,48.50
2022-08-17T20:11:08.915Z,48.98
2022-08-17T20:12:08.888Z,49.31
2022-08-17T20:13:08.881Z,46.89
2022-08-17T20:14:08.870Z,45.12
2022-08-17T20:15:08.881Z,50.60
2022-08-17T20:16:10.095Z,47.70
2022-08-17T20:17:08.820Z,48.02
2022-08-17T20:18:08.840Z,52.05
2022-08-17T20:19:08.814Z,48.50
2022-08-17T20:20:08.838Z,48.82
2022-08-17T20:21:09.811Z,48.34
2022-08-17T20:22:09.933Z,48.18
2022-08-17T20:23:09.694Z,48.66
2022-08-17T20:24:08.775Z,49.15
2022-08-17T20:25:08.806Z,50.92
2022-08-17T20:26:08.754Z,46.73
2022-08-17T20:27:08.867Z,52.53
2022-08-17T20:28:08.734Z,50.43
2022-08-17T20:29:08.730Z,47.86
2022-08-17T20:30:08.793Z,47.86
2022-08-17T20:31:08.740Z,51.40
2022-08-17T20:32:08.705Z,48.66
2022-08-17T20:33:08.675Z,48.34
2022-08-17T20:34:08.681Z,48.66
2022-08-17T20:35:08.680Z,45.76
2022-08-17T20:36:08.681Z,47.21
2022-08-17T20:37:08.857Z,47.53
2022-08-17T20:38:08.637Z,49.15
2022-08-17T20:39:09.250Z,50.60
2022-08-17T20:40:08.673Z,47.53
2022-08-17T20:41:08.613Z,48.98
2022-08-17T20:42:08.574Z,47.86
2022-08-17T20:43:08.582Z,46.89
2022-08-17T20:44:08.582Z,45.92
2022-08-17T20:45:08.587Z,49.31
2022-08-17T20:46:08.642Z,48.34
2022-08-17T20:47:08.539Z,48.98
2022-08-17T20:48:35.638Z,47.53
2022-08-17T20:49:10.541Z,47.05
2022-08-17T20:50:08.544Z,47.86
2022-08-17T20:51:08.490Z,48.50
2022-08-17T20:52:08.481Z,46.41
2022-08-17T20:53:08.504Z,46.89
2022-08-17T20:54:09.472Z,43.83
2022-08-17T20:55:08.548Z,49.47
2022-08-17T20:56:08.446Z,49.79
2022-08-17T20:57:14.021Z,47.70
2022-08-17T20:58:09.428Z,46.73
2022-08-17T20:59:08.442Z,49.79
2022-08-17T21:00:08.465Z,52.69
2022-08-17T21:01:08.476Z,50.60
2022-08-17T21:02:17.463Z,50.76
2022-08-17T21:03:10.371Z,45.76
2022-08-17T21:04:09.132Z,49.31
2022-08-17T21:05:08.375Z,49.15
2022-08-17T21:06:17.305Z,47.86
2022-08-17T21:07:09.431Z,51.08
2022-08-17T21:08:08.382Z,46.73
2022-08-17T21:09:08.351Z,49.95
2022-08-17T21:10:08.309Z,50.43
2022-08-17T21:11:08.319Z,50.60
2022-08-17T21:12:08.307Z,50.27
2022-08-17T21:13:08.275Z,42.86
2022-08-17T21:14:09.328Z,50.76
2022-08-17T21:15:08.288Z,46.89
2022-08-17T21:16:08.278Z,46.41
2022-08-17T21:17:08.229Z,45.92
2022-08-17T21:18:08.218Z,45.60
2022-08-17T21:19:08.223Z,32.07
2022-08-17T21:20:11.561Z,32.23
2022-08-17T21:21:10.594Z,33.84
2022-08-17T21:22:08.191Z,33.03
2022-08-17T21:23:08.203Z,40.61
2022-08-17T21:24:08.172Z,39.96
2022-08-17T21:25:08.204Z,37.87
2022-08-17T21:26:08.170Z,39.80
2022-08-17T21:27:08.176Z,39.48
2022-08-17T21:28:08.151Z,38.19
2022-08-17T21:29:14.697Z,42.70
2022-08-17T21:30:10.272Z,39.16
2022-08-17T21:31:08.111Z,34.97
2022-08-17T21:32:09.515Z,37.87
2022-08-17T21:33:08.065Z,39.64
2022-08-17T21:34:08.057Z,39.96
2022-08-17T21:35:08.113Z,43.83
2022-08-17T21:36:08.055Z,43.99
2022-08-17T21:37:08.735Z,45.92
2022-08-17T21:38:08.027Z,42.38
2022-08-17T21:39:08.010Z,38.03
2022-08-17T21:40:08.165Z,47.37
2022-08-17T21:41:08.052Z,49.95
2022-08-17T21:42:07.998Z,37.06
2022-08-17T21:43:08.025Z,42.54
2022-08-17T21:44:08.706Z,46.73
2022-08-17T21:45:07.975Z,40.28
2022-08-17T21:46:07.978Z,44.63
2022-08-17T21:47:07.935Z,34.97
2022-08-17T21:48:07.996Z,35.61
2022-08-17T21:49:13.363Z,37.38
2022-08-17T21:50:09.655Z,41.09
2022-08-17T21:51:07.963Z,37.06
2022-08-17T21:52:07.916Z,35.45
2022-08-17T21:53:07.934Z,34.32
2022-08-17T21:54:07.906Z,33.35
2022-08-17T21:55:07.940Z,36.25
2022-08-17T21:56:07.851Z,32.07
2022-08-17T21:57:07.823Z,32.23
2022-08-17T21:58:13.908Z,47.21
2022-08-17T21:59:08.802Z,38.03
2022-08-17T22:00:08.705Z,36.90
2022-08-17T22:01:07.829Z,35.45
2022-08-17T22:02:07.807Z,43.83
2022-08-17T22:03:07.762Z,37.71
2022-08-17T22:04:07.762Z,38.67
2022-08-17T22:05:07.810Z,36.58
2022-08-17T22:06:07.720Z,40.93
2022-08-17T22:07:07.743Z,41.09
2022-08-17T22:08:07.734Z,42.06
2022-08-17T22:09:08.765Z,37.06
2022-08-17T22:10:07.717Z,34.00
2022-08-17T22:11:07.706Z,36.25
2022-08-17T22:12:07.703Z,40.77
2022-08-17T22:13:16.772Z,39.32
2022-08-17T22:14:09.204Z,32.55
2022-08-17T22:15:07.683Z,31.10
2022-08-17T22:16:15.730Z,33.35
2022-08-17T22:17:08.645Z,37.22
2022-08-17T22:18:07.721Z,38.19
2022-08-17T22:19:07.628Z,38.19
2022-08-17T22:20:07.649Z,36.58
2022-08-17T22:21:07.623Z,34.16
2022-08-17T22:22:07.617Z,33.03
2022-08-17T22:23:07.715Z,38.35
2022-08-17T22:24:07.576Z,31.26
2022-08-17T22:25:08.091Z,33.19
2022-08-17T22:26:12.607Z,35.13
2022-08-17T22:27:08.538Z,32.87
2022-08-17T22:28:07.563Z,40.28
2022-08-17T22:29:07.526Z,34.32
2022-08-17T22:30:07.564Z,33.68
2022-08-17T22:31:08.497Z,33.03
2022-08-17T22:32:07.470Z,34.64
2022-08-17T22:33:07.476Z,35.77
2022-08-17T22:34:07.489Z,33.84
2022-08-17T22:35:07.753Z,43.51
2022-08-17T22:36:07.757Z,40.93
2022-08-17T22:37:07.510Z,33.35
2022-08-17T22:38:07.415Z,32.23
2022-08-17T22:39:07.405Z,35.77
2022-08-17T22:40:07.541Z,35.13
2022-08-17T22:41:07.402Z,42.38
2022-08-17T22:42:07.437Z,41.41
2022-08-17T22:43:07.359Z,32.71
2022-08-17T22:44:07.408Z,34.16
2022-08-17T22:45:07.368Z,37.06
2022-08-17T22:46:07.497Z,35.29
2022-08-17T22:47:07.350Z,34.16
2022-08-17T22:48:07.362Z,34.80
2022-08-17T22:49:07.325Z,41.73